createdAt,value
2022-08-19T00:01:53.234Z,15.93
2022-08-19T00:04:25.468Z,15.75
2022-08-19T00:06:52.600Z,17.13
2022-08-19T00:09:24.066Z,19.35
2022-08-19T00:11:50.594Z,16.00
2022-08-19T00:14:17.876Z,13.88
2022-08-19T00:16:45.720Z,17.30
2022-08-19T00:19:12.327Z,14.88
2022-08-19T00:21:40.462Z,17.50
2022-08-19T00:24:07.788Z,14.43
2022-08-19T00:26:34.242Z,18.30
2022-08-19T00:29:02.068Z,14.98
2022-08-19T00:31:28.840Z,16.90
2022-08-19T00:33:57.606Z,14.93
2022-08-19T00:36:24.080Z,15.60
2022-08-19T00:38:52.587Z,15.23
2022-08-19T00:41:21.990Z,16.27
2022-08-19T00:44:08.219Z,15.30
2022-08-19T00:46:36.880Z,16.55
2022-08-19T00:49:07.431Z,15.40
2022-08-19T00:51:33.912Z,15.32
2022-08-19T00:54:01.982Z,13.38
2022-08-19T00:56:28.653Z,18.08
2022-08-19T00:58:56.409Z,15.55
2022-08-19T01:01:23.069Z,14.93
2022-08-19T01:03:57.053Z,17.23
2022-08-19T01:06:25.146Z,19.88
2022-08-19T01:08:51.624Z,18.20
2022-08-19T01:11:18.013Z,17.70
2022-08-19T01:13:49.913Z,14.48
2022-08-19T01:16:18.122Z,14.75
2022-08-19T01:18:44.466Z,18.23
2022-08-19T01:21:19.277Z,14.75
2022-08-19T01:23:48.502Z,12.93
2022-08-19T01:26:20.076Z,14.07
2022-08-19T01:28:51.845Z,15.20
2022-08-19T01:31:26.369Z,14.48
2022-08-19T01:33:55.157Z,14.55
2022-08-19T01:36:26.958Z,15.35
2022-08-19T01:38:53.460Z,18.35
2022-08-19T01:41:19.850Z,18.25
2022-08-19T01:44:03.847Z,17.38
2022-08-19T01:46:33.301Z,14.35
2022-08-19T01:48:59.823Z,18.00
2022-08-19T01:51:26.129Z,16.60
2022-08-19T01:53:52.849Z,15.27
2022-08-19T01:56:19.719Z,14.55
2022-08-19T01:58:54.193Z,15.48
2022-08-19T02:01:20.658Z,19.45
2022-08-19T02:03:50.195Z,15.77
2022-08-19T02:06:17.929Z,16.33
2022-08-19T02:08:49.120Z,19.25
2022-08-19T02:11:22.364Z,17.75
2022-08-19T02:13:50.360Z,16.17
2022-08-19T02:16:20.899Z,14.35
2022-08-19T02:18:50.296Z,14.35
2022-08-19T02:21:20.748Z,17.65
2022-08-19T02:23:50.640Z,17.13
2022-08-19T02:26:17.620Z,16.50
2022-08-19T02:28:44.143Z,16.48
2022-08-19T02:31:15.909Z,18.27
2022-08-19T02:33:42.469Z,16.90
2022-08-19T02:36:10.164Z,16.60
2022-08-19T02:38:37.937Z,18.77
2022-08-19T02:41:06.278Z,14.55
2022-08-19T02:43:34.461Z,18.90
2022-08-19T02:46:01.275Z,16.80
2022-08-19T02:48:27.685Z,16.33
2022-08-19T02:50:56.354Z,17.85
2022-08-19T02:53:24.182Z,14.70
2022-08-19T02:55:50.753Z,17.15
2022-08-19T02:58:17.855Z,14.57
2022-08-19T03:00:50.655Z,16.23
2022-08-19T03:03:20.532Z,17.92
2022-08-19T03:05:56.577Z,18.38
2022-08-19T03:08:23.703Z,16.23
2022-08-19T03:10:50.066Z,17.40
2022-08-19T03:13:17.794Z,15.57
2022-08-19T03:15:49.864Z,19.17
2022-08-19T03:18:18.946Z,18.02
2022-08-19T03:20:48.534Z,17.30
2022-08-19T03:23:18.372Z,18.83
2022-08-19T03:25:58.121Z,18.10
2022-08-19T03:28:37.222Z,16.60
2022-08-19T03:31:44.681Z,17.42
2022-08-19T03:33:54.908Z,16.15
2022-08-19T03:36:26.419Z,20.42
2022-08-19T03:38:59.694Z,16.08
2022-08-19T03:41:45.074Z,18.05
2022-08-19T03:44:18.777Z,18.77
2022-08-19T03:46:49.080Z,18.25
2022-08-19T03:49:18.706Z,16.77
2022-08-19T03:51:46.888Z,16.27
2022-08-19T03:54:14.623Z,15.40
2022-08-19T03:56:41.937Z,15.95
2022-08-19T03:59:12.947Z,17.67
2022-08-19T04:01:39.334Z,19.40
2022-08-19T04:04:05.946Z,19.52
2022-08-19T04:06:35.322Z,17.77
2022-08-19T04:09:07.454Z,18.90
2022-08-19T04:11:49.486Z,17.48
2022-08-19T04:14:18.535Z,16.35
2022-08-19T04:16:45.476Z,18.70
2022-08-19T04:19:12.148Z,16.33
2022-08-19T04:21:38.447Z,15.82
2022-08-19T04:24:05.261Z,15.90
2022-08-19T04:26:36.158Z,17.55
2022-08-19T04:29:06.541Z,18.38
2022-08-19T04:31:38.183Z,18.33
2022-08-19T04:34:06.424Z,19.90
2022-08-19T04:36:34.678Z,15.55
2022-08-19T04:39:04.065Z,17.45
2022-08-19T04:41:51.334Z,18.55
2022-08-19T04:44:20.977Z,19.13
2022-08-19T04:46:51.462Z,25.88
2022-08-19T04:49:23.300Z,18.58
2022-08-19T04:51:50.679Z,18.17
2022-08-19T04:57:06.986Z,17.98
2022-08-19T04:59:34.491Z,18.52
2022-08-19T05:02:00.826Z,24.75
2022-08-19T05:04:27.226Z,17.77
2022-08-19T05:06:54.347Z,17.85
2022-08-19T05:09:26.376Z,19.70
2022-08-19T05:11:57.103Z,19.23
2022-08-19T05:14:24.034Z,16.73
2022-08-19T05:16:55.920Z,17.70
2022-08-19T05:19:51.313Z,15.18
2022-08-19T05:22:38.273Z,17.40
2022-08-19T05:25:13.847Z,19.13
2022-08-19T05:27:42.930Z,17.05
2022-08-19T05:30:09.857Z,13.27
2022-08-19T05:32:40.160Z,14.98
2022-08-19T05:35:10.373Z,13.75
2022-08-19T05:37:36.725Z,13.35
2022-08-19T05:40:07.607Z,15.63
2022-08-19T05:42:38.453Z,18.00
2022-08-19T05:45:05.453Z,15.73
2022-08-19T05:47:33.162Z,11.95
2022-08-19T05:50:05.316Z,12.20
2022-08-19T05:52:31.865Z,9.90
2022-08-19T05:54:58.217Z,10.23
2022-08-19T05:57:25.349Z,11.77
2022-08-19T05:59:58.340Z,12.82
2022-08-19T06:02:26.191Z,12.50
2022-08-19T06:04:52.878Z,14.73
2022-08-19T06:07:20.386Z,15.77
2022-08-19T06:09:59.613Z,16.80
2022-08-19T06:12:31.556Z,17.67
2022-08-19T06:15:01.550Z,18.92
2022-08-19T06:17:30.043Z,20.02
2022-08-19T06:19:56.508Z,19.77
2022-08-19T06:22:22.853Z,22.33
2022-08-19T06:24:49.165Z,26.00
2022-08-19T06:27:18.450Z,22.50
2022-08-19T06:29:44.798Z,25.05
2022-08-19T06:32:11.992Z,23.17
2022-08-19T06:37:06.565Z,25.70
2022-08-19T06:39:35.770Z,22.60
2022-08-19T06:42:02.986Z,25.35
2022-08-19T06:44:35.206Z,26.40
2022-08-19T06:47:14.295Z,24.65
2022-08-19T06:49:42.190Z,29.75
2022-08-19T06:52:08.639Z,25.50
2022-08-19T06:54:37.801Z,24.85
2022-08-19T06:57:21.393Z,23.77
2022-08-19T06:59:51.063Z,28.70
2022-08-19T07:04:53.472Z,27.00
2022-08-19T07:07:23.878Z,32.13
2022-08-19T07:09:52.174Z,31.25
2022-08-19T07:12:27.132Z,27.98
2022-08-19T07:14:56.430Z,30.35
2022-08-19T07:17:26.506Z,26.85
2022-08-19T07:19:54.425Z,27.80
2022-08-19T07:22:23.388Z,26.88
2022-08-19T07:24:51.510Z,32.97
2022-08-19T07:27:22.548Z,28.27
2022-08-19T07:29:57.400Z,31.35
2022-08-19T07:32:29.090Z,29.08
2022-08-19T07:34:56.800Z,28.63
2022-08-19T07:37:25.201Z,30.00
2022-08-19T07:39:52.909Z,28.08
2022-08-19T07:42:21.889Z,33.10
2022-08-19T07:44:50.208Z,29.88
2022-08-19T07:47:49.170Z,30.48
2022-08-19T07:50:09.187Z,32.08
2022-08-19T07:52:37.130Z,34.00
2022-08-19T07:55:04.908Z,31.08
2022-08-19T07:57:31.475Z,30.30
2022-08-19T07:59:57.912Z,27.52
2022-08-19T08:02:24.309Z,27.00
2022-08-19T08:05:09.527Z,28.10
2022-08-19T08:07:54.344Z,29.63
2022-08-19T08:10:21.547Z,24.70
2022-08-19T08:13:09.693Z,28.67
2022-08-19T08:15:43.762Z,27.15
2022-08-19T08:18:13.847Z,27.55
2022-08-19T08:20:41.036Z,29.48
2022-08-19T08:23:26.473Z,26.63
2022-08-19T08:25:55.191Z,26.40
2022-08-19T08:28:21.528Z,25.17
2022-08-19T08:30:49.355Z,28.95
2022-08-19T08:33:29.922Z,25.52
2022-08-19T08:36:00.942Z,30.60
2022-08-19T08:38:28.265Z,27.83
2022-08-19T08:41:10.106Z,25.27
2022-08-19T08:43:39.501Z,22.65
2022-08-19T08:46:07.938Z,25.40
2022-08-19T08:48:52.742Z,21.08
2022-08-19T08:51:21.974Z,25.73
2022-08-19T08:53:50.168Z,25.58
2022-08-19T08:56:23.468Z,26.52
2022-08-19T08:58:59.470Z,25.73
2022-08-19T09:01:30.227Z,25.30
2022-08-19T09:03:57.665Z,25.13
2022-08-19T09:06:32.156Z,23.40
2022-08-19T09:09:11.788Z,21.02
2022-08-19T09:11:42.563Z,19.88
2022-08-19T09:14:50.134Z,20.38
2022-08-19T09:17:31.730Z,20.95
2022-08-19T09:20:01.675Z,24.45
2022-08-19T09:22:28.161Z,23.38
2022-08-19T09:24:55.239Z,21.10
2022-08-19T09:27:41.802Z,23.20
2022-08-19T09:30:10.525Z,23.30
2022-08-19T09:32:36.898Z,23.38
2022-08-19T09:35:03.585Z,23.13
2022-08-19T09:37:35.661Z,23.52
2022-08-19T09:40:02.429Z,22.98
2022-08-19T09:44:56.939Z,19.45
2022-08-19T09:47:25.751Z,20.63
2022-08-19T09:49:52.125Z,21.05
2022-08-19T09:52:18.989Z,21.13
2022-08-19T09:54:45.365Z,19.35
2022-08-19T09:57:18.385Z,18.95
2022-08-19T09:59:45.831Z,17.05
2022-08-19T10:02:12.891Z,19.95
2022-08-19T10:04:58.041Z,22.40
2022-08-19T10:07:36.035Z,20.30
2022-08-19T10:10:04.425Z,24.83
2022-08-19T10:12:31.036Z,21.58
2022-08-19T10:14:57.451Z,20.73
2022-08-19T10:17:26.777Z,21.38
2022-08-19T10:19:58.159Z,21.17
2022-08-19T10:22:25.674Z,23.33
2022-08-19T10:24:53.371Z,20.52
2022-08-19T10:27:19.675Z,17.20
2022-08-19T10:29:48.896Z,21.10
2022-08-19T10:32:15.354Z,19.92
2022-08-19T10:34:48.429Z,18.75
2022-08-19T10:37:18.054Z,18.38
2022-08-19T10:39:50.463Z,18.02
2022-08-19T10:42:17.873Z,21.35
2022-08-19T10:44:44.216Z,19.60
2022-08-19T10:47:11.482Z,23.40
2022-08-19T10:50:08.025Z,20.63
2022-08-19T10:52:39.228Z,20.52
2022-08-19T10:55:25.855Z,23.08
2022-08-19T10:58:03.141Z,19.85
2022-08-19T11:00:31.721Z,19.52
2022-08-19T11:03:00.540Z,25.40
2022-08-19T11:05:26.857Z,14.52
2022-08-19T11:07:53.505Z,18.63
2022-08-19T11:10:21.937Z,19.10
2022-08-19T11:12:48.744Z,18.95
2022-08-19T11:15:15.122Z,22.52
2022-08-19T11:17:45.544Z,15.43
2022-08-19T11:20:13.092Z,15.73
2022-08-19T11:22:41.826Z,14.63
2022-08-19T11:25:09.842Z,16.67
2022-08-19T11:27:39.069Z,23.67
2022-08-19T11:30:08.288Z,20.55
2022-08-19T11:32:39.548Z,14.25
2022-08-19T11:37:32.676Z,16.13
2022-08-19T11:39:59.070Z,13.43
2022-08-19T11:45:11.535Z,15.88
2022-08-19T11:47:39.621Z,15.40
2022-08-19T11:50:06.807Z,16.80
2022-08-19T11:52:33.183Z,16.80
2022-08-19T11:54:59.626Z,13.68
2022-08-19T11:59:53.542Z,10.85
2022-08-19T12:02:20.155Z,11.48
2022-08-19T12:04:46.731Z,14.35
2022-08-19T12:07:13.010Z,10.63
2022-08-19T12:12:09.754Z,13.25
2022-08-19T12:14:36.395Z,15.90
2022-08-19T12:17:05.141Z,16.45
2022-08-19T12:19:31.532Z,13.40
2022-08-19T12:22:04.321Z,13.65
2022-08-19T12:24:34.952Z,12.60
2022-08-19T12:27:03.160Z,13.45
2022-08-19T12:29:30.535Z,12.65
2022-08-19T12:32:05.031Z,17.45
2022-08-19T12:34:32.309Z,15.77
2022-08-19T12:36:59.424Z,13.18
2022-08-19T12:39:26.397Z,14.20
2022-08-19T12:41:54.529Z,11.95
2022-08-19T12:44:29.362Z,14.98
2022-08-19T12:46:58.405Z,16.98
2022-08-19T12:49:52.386Z,18.48
2022-08-19T12:52:11.384Z,11.15
2022-08-19T12:54:37.866Z,11.85
2022-08-19T12:57:08.642Z,11.55
2022-08-19T12:59:37.266Z,11.15
2022-08-19T13:02:05.610Z,11.30
2022-08-19T13:04:31.999Z,10.63
2022-08-19T13:06:59.942Z,8.88
2022-08-19T13:09:28.486Z,9.30
2022-08-19T13:11:57.898Z,9.65
2022-08-19T13:14:24.249Z,10.25
2022-08-19T13:16:53.330Z,12.02
2022-08-19T13:19:21.946Z,9.93
2022-08-19T13:21:50.648Z,9.38
2022-08-19T13:24:16.976Z,11.95
2022-08-19T13:26:43.973Z,8.95
2022-08-19T13:29:29.045Z,10.55
2022-08-19T13:32:13.901Z,8.43
2022-08-19T13:34:49.917Z,9.38
2022-08-19T13:37:19.915Z,9.63
2022-08-19T13:39:48.255Z,14.60
2022-08-19T13:42:15.148Z,8.98
2022-08-19T13:44:41.484Z,9.32
2022-08-19T13:47:08.233Z,9.23
2022-08-19T13:49:36.764Z,9.35
2022-08-19T13:52:04.020Z,9.90
2022-08-19T13:54:31.483Z,11.48
2022-08-19T13:56:57.798Z,12.52
2022-08-19T13:59:24.108Z,8.73
2022-08-19T14:01:50.910Z,10.05
2022-08-19T14:04:19.913Z,11.25
2022-08-19T14:06:46.320Z,9.68
2022-08-19T14:09:13.075Z,12.68
2022-08-19T14:11:39.570Z,14.52
2022-08-19T14:14:05.895Z,15.68
2022-08-19T14:16:32.295Z,15.45
2022-08-19T14:18:58.659Z,16.20
2022-08-19T14:21:28.586Z,15.80
2022-08-19T14:23:54.980Z,12.13
2022-08-19T14:26:22.557Z,11.82
2022-08-19T14:28:50.350Z,15.60
2022-08-19T14:31:20.954Z,11.68
2022-08-19T14:33:53.750Z,12.55
2022-08-19T14:36:21.225Z,13.15
2022-08-19T14:38:49.899Z,11.85
2022-08-19T14:41:21.087Z,12.43
2022-08-19T14:43:51.657Z,11.30
2022-08-19T14:46:22.194Z,9.73
2022-08-19T14:48:51.897Z,9.75
2022-08-19T14:51:20.584Z,11.85
2022-08-19T14:53:49.719Z,10.73
2022-08-19T14:56:18.555Z,10.35
2022-08-19T14:58:45.651Z,17.83
2022-08-19T15:01:14.087Z,14.85
2022-08-19T15:03:41.432Z,10.25
2022-08-19T15:06:07.840Z,10.90
2022-08-19T15:08:36.498Z,11.40
2022-08-19T15:11:03.207Z,9.30
2022-08-19T15:13:30.371Z,9.88
2022-08-19T15:15:58.015Z,9.68
2022-08-19T15:18:24.753Z,11.77
2022-08-19T15:20:51.798Z,9.60
2022-08-19T15:23:22.027Z,11.32
2022-08-19T15:25:48.359Z,9.05
2022-08-19T15:28:25.010Z,10.63
2022-08-19T15:30:51.488Z,26.17
2022-08-19T15:33:23.517Z,10.07
2022-08-19T15:35:51.634Z,12.05
2022-08-19T15:38:22.254Z,8.75
2022-08-19T15:40:49.783Z,9.60
2022-08-19T15:43:16.774Z,11.43
2022-08-19T15:45:48.870Z,11.27
2022-08-19T15:48:17.526Z,8.70
2022-08-19T15:50:43.810Z,11.13
2022-08-19T15:53:10.843Z,14.05
2022-08-19T15:55:42.013Z,17.15
2022-08-19T15:58:30.067Z,17.95
2022-08-19T16:01:24.237Z,17.83
2022-08-19T16:04:11.333Z,17.80
2022-08-19T16:06:43.928Z,18.00
2022-08-19T16:09:12.128Z,20.38
2022-08-19T16:11:39.657Z,29.35
2022-08-19T16:14:09.420Z,23.45
2022-08-19T16:16:36.706Z,32.33
2022-08-19T16:19:06.191Z,26.92
2022-08-19T16:21:39.505Z,27.55
2022-08-19T16:24:09.313Z,28.80
2022-08-19T16:26:37.390Z,26.10
2022-08-19T16:29:09.099Z,30.17
2022-08-19T16:31:39.241Z,32.95
2022-08-19T16:34:05.837Z,28.35
2022-08-19T16:36:33.677Z,25.63
2022-08-19T16:39:00.718Z,27.77
2022-08-19T16:41:27.958Z,27.98
2022-08-19T16:43:54.735Z,24.15
2022-08-19T16:46:26.895Z,25.65
2022-08-19T16:48:53.858Z,25.90
2022-08-19T16:53:48.984Z,23.90
2022-08-19T16:56:15.516Z,24.38
2022-08-19T16:58:43.193Z,23.60
2022-08-19T17:01:10.581Z,25.17
2022-08-19T17:03:37.810Z,27.80
2022-08-19T17:06:18.507Z,23.25
2022-08-19T17:08:51.296Z,30.55
2022-08-19T17:11:21.553Z,27.40
2022-08-19T17:13:49.448Z,27.52
2022-08-19T17:16:19.272Z,24.95
2022-08-19T17:18:45.839Z,37.53
2022-08-19T17:21:13.275Z,20.95
2022-08-19T17:23:43.722Z,22.95
2022-08-19T17:26:16.795Z,20.88
2022-08-19T17:28:45.251Z,24.33
2022-08-19T17:31:11.994Z,18.13
2022-08-19T17:33:41.306Z,19.63
2022-08-19T17:36:08.121Z,21.98
2022-08-19T17:38:35.849Z,17.85
2022-08-19T17:41:05.885Z,17.02
2022-08-19T17:43:34.593Z,18.38
2022-08-19T17:46:04.135Z,19.48
2022-08-19T17:48:38.760Z,17.05
2022-08-19T17:51:15.469Z,20.08
2022-08-19T17:53:41.806Z,16.38
2022-08-19T17:56:08.125Z,17.15
2022-08-19T17:58:34.638Z,16.42
2022-08-19T18:01:02.760Z,17.70
2022-08-19T18:03:30.223Z,17.50
2022-08-19T18:05:57.029Z,15.32
2022-08-19T18:08:23.693Z,17.63
2022-08-19T18:10:50.083Z,16.55
2022-08-19T18:13:18.546Z,17.17
2022-08-19T18:15:44.903Z,17.38
2022-08-19T18:18:15.125Z,16.10
2022-08-19T18:20:42.053Z,16.35
2022-08-19T18:23:44.176Z,17.90
2022-08-19T18:25:55.150Z,18.02
2022-08-19T18:28:25.748Z,15.13
2022-08-19T18:30:53.272Z,15.15
2022-08-19T18:33:19.742Z,16.42
2022-08-19T18:35:48.427Z,15.95
2022-08-19T18:38:34.735Z,16.77
2022-08-19T18:41:22.654Z,18.30
2022-08-19T18:44:07.832Z,18.85
2022-08-19T18:46:52.854Z,18.60
2022-08-19T18:49:27.545Z,19.55
2022-08-19T18:51:56.895Z,17.83
2022-08-19T18:54:23.945Z,21.10
2022-08-19T18:56:55.506Z,25.58
2022-08-19T18:59:26.152Z,23.00
2022-08-19T19:01:54.338Z,20.75
2022-08-19T19:04:26.547Z,19.50
2022-08-19T19:06:52.976Z,20.50
2022-08-19T19:09:24.736Z,22.35
2022-08-19T19:11:53.376Z,23.00
2022-08-19T19:14:47.693Z,19.60
2022-08-19T19:17:13.666Z,20.48
2022-08-19T19:19:43.054Z,22.55
2022-08-19T19:22:14.028Z,19.65
2022-08-19T19:24:48.841Z,17.98
2022-08-19T19:27:16.973Z,18.00
2022-08-19T19:29:52.653Z,17.75
2022-08-19T19:32:21.783Z,20.40
2022-08-19T19:34:48.892Z,22.77
2022-08-19T19:37:16.427Z,19.75
2022-08-19T19:39:46.620Z,20.08
2022-08-19T19:42:19.844Z,18.60
2022-08-19T19:44:51.600Z,17.20
2022-08-19T19:47:24.239Z,20.05
2022-08-19T19:50:13.862Z,20.50
2022-08-19T19:52:37.969Z,18.02
2022-08-19T19:55:04.593Z,16.63
2022-08-19T19:57:30.907Z,17.80
2022-08-19T19:59:58.277Z,16.65
2022-08-19T20:02:25.413Z,18.17
2022-08-19T20:04:52.072Z,18.98
2022-08-19T20:07:38.485Z,16.92
2022-08-19T20:10:05.084Z,24.27
2022-08-19T20:12:32.608Z,18.10
2022-08-19T20:15:02.512Z,20.67
2022-08-19T20:17:32.523Z,18.45
2022-08-19T20:20:02.296Z,18.42
2022-08-19T20:22:28.695Z,18.67
2022-08-19T20:25:01.728Z,17.23
2022-08-19T20:27:29.286Z,17.92
2022-08-19T20:30:05.481Z,20.23
2022-08-19T20:32:32.092Z,18.13
2022-08-19T20:34:58.898Z,18.48
2022-08-19T20:37:25.921Z,18.13
2022-08-19T20:39:52.348Z,21.75
2022-08-19T20:42:18.838Z,20.88
2022-08-19T20:44:45.183Z,19.08
2022-08-19T20:47:11.513Z,18.67
2022-08-19T20:49:37.870Z,19.98
2022-08-19T20:52:04.984Z,19.98
2022-08-19T20:54:31.386Z,20.92
2022-08-19T20:56:57.755Z,21.35
2022-08-19T20:59:24.197Z,17.77
2022-08-19T21:01:53.560Z,20.70
2022-08-19T21:04:21.226Z,20.42
2022-08-19T21:06:50.708Z,20.02
2022-08-19T21:09:19.956Z,18.50
2022-08-19T21:11:49.278Z,17.30
2022-08-19T21:14:15.886Z,19.33
2022-08-19T21:16:42.321Z,17.58
2022-08-19T21:19:08.604Z,15.25
2022-08-19T21:21:35.004Z,15.07
2022-08-19T21:24:01.672Z,14.98
2022-08-19T21:26:27.983Z,16.15
2022-08-19T21:28:54.305Z,15.48
2022-08-19T21:31:21.068Z,19.20
2022-08-19T21:33:47.683Z,14.43
2022-08-19T21:36:14.092Z,16.38
2022-08-19T21:38:41.276Z,17.73
2022-08-19T21:41:07.625Z,14.50
2022-08-19T21:43:35.159Z,16.08
2022-08-19T21:46:01.771Z,14.05
2022-08-19T21:48:30.649Z,13.88
2022-08-19T21:50:56.977Z,16.30
2022-08-19T21:53:23.251Z,15.15
2022-08-19T21:55:53.114Z,17.20
2022-08-19T21:58:28.084Z,14.95
2022-08-19T22:00:56.574Z,18.85
2022-08-19T22:03:23.720Z,13.75
2022-08-19T22:05:50.781Z,17.10
2022-08-19T22:10:46.704Z,15.25
2022-08-19T22:13:13.317Z,17.90
2022-08-19T22:15:40.976Z,16.48
2022-08-19T22:18:07.954Z,13.23
2022-08-19T22:23:02.292Z,12.75
2022-08-19T22:25:31.842Z,11.75
2022-08-19T22:28:00.409Z,10.02
2022-08-19T22:30:27.865Z,9.40
2022-08-19T22:33:02.697Z,9.75
2022-08-19T22:35:31.310Z,8.70
2022-08-19T22:37:58.916Z,8.45
2022-08-19T22:40:26.196Z,7.68
2022-08-19T22:42:59.976Z,7.75
2022-08-19T22:45:27.706Z,8.65
2022-08-19T22:47:54.530Z,8.25
2022-08-19T22:52:54.867Z,10.13
2022-08-19T22:55:21.179Z,8.00
2022-08-19T22:57:50.542Z,8.98
2022-08-19T23:00:16.886Z,10.00
2022-08-19T23:02:52.062Z,11.00
2022-08-19T23:05:20.881Z,8.82
2022-08-19T23:07:52.243Z,7.85
2022-08-19T23:10:26.801Z,7.78
2022-08-19T23:12:54.921Z,10.25
2022-08-19T23:15:25.548Z,8.15
2022-08-19T23:17:52.616Z,8.85
2022-08-19T23:20:19.755Z,10.00
2022-08-19T23:25:16.636Z,8.57
2022-08-19T23:28:02.457Z,9.25
2022-08-19T23:30:29.682Z,10.65
2022-08-19T23:32:57.129Z,10.15
2022-08-19T23:35:23.832Z,12.57
2022-08-19T23:37:51.974Z,9.82
2022-08-19T23:40:21.575Z,9.32
2022-08-19T23:42:49.086Z,8.52
2022-08-19T23:45:15.820Z,11.52
2022-08-19T23:47:50.431Z,10.60
2022-08-19T23:50:17.389Z,12.10
2022-08-19T23:55:10.032Z,14.02
2022-08-19T23:57:36.441Z,10.50
